createdAt,value
2022-12-07T04:13:08.426Z,64.69
2022-12-07T04:15:54.572Z,64.72
2022-12-07T04:18:40.569Z,64.42
2022-12-07T04:21:26.390Z,64.51
2022-12-07T04:24:14.014Z,64.62
2022-12-07T04:26:59.834Z,64.50
2022-12-07T04:29:45.561Z,64.53
2022-12-07T04:32:31.476Z,64.86
2022-12-07T04:35:17.687Z,64.38
2022-12-07T04:38:03.558Z,64.80
2022-12-07T04:40:49.193Z,64.41
2022-12-07T04:43:35.417Z,64.58
2022-12-07T04:46:21.056Z,64.40
2022-12-07T04:49:06.787Z,64.85
2022-12-07T04:51:52.992Z,64.89
2022-12-07T04:54:38.596Z,65.09
2022-12-07T04:57:24.233Z,65.02
2022-12-07T05:00:10.594Z,64.86
2022-12-07T05:02:56.529Z,65.05
2022-12-07T05:05:42.897Z,64.96
2022-12-07T05:08:28.844Z,64.71
2022-12-07T05:11:33.337Z,65.07
2022-12-07T05:14:21.344Z,65.05
2022-12-07T05:17:07.267Z,65.22
2022-12-07T05:19:53.292Z,65.03
2022-12-07T05:22:39.127Z,65.09
2022-12-07T05:25:25.301Z,64.77
2022-12-07T05:28:11.766Z,65.10
2022-12-07T05:30:59.967Z,65.18
2022-12-07T05:33:46.190Z,65.22
2022-12-07T05:36:32.874Z,64.84
2022-12-07T05:39:18.528Z,64.82
2022-12-07T05:42:13.852Z,65.13
2022-12-07T05:44:59.726Z,64.88
2022-12-07T05:47:45.615Z,64.53
2022-12-07T05:50:31.491Z,64.77
2022-12-07T05:53:23.207Z,64.92
2022-12-07T05:56:09.254Z,65.00
2022-12-07T05:59:14.432Z,64.88
2022-12-07T06:02:03.371Z,65.11
2022-12-07T06:04:49.650Z,64.59
2022-12-07T06:07:35.423Z,64.78
2022-12-07T06:10:21.318Z,64.89
2022-12-07T06:13:06.948Z,64.86
2022-12-07T06:15:52.732Z,64.91
2022-12-07T06:18:38.465Z,64.99
2022-12-07T06:21:24.250Z,65.09
2022-12-07T06:24:14.533Z,65.30
2022-12-07T06:27:00.832Z,65.11
2022-12-07T06:29:46.922Z,65.69
2022-12-07T06:32:32.841Z,65.36
2022-12-07T06:35:18.896Z,65.52
2022-12-07T06:38:04.797Z,65.29
2022-12-07T06:40:50.655Z,65.35
2022-12-07T06:43:36.474Z,65.78
2022-12-07T06:46:22.581Z,65.84
2022-12-07T06:49:08.713Z,66.01
2022-12-07T06:51:54.856Z,65.57
2022-12-07T06:54:40.944Z,65.30
2022-12-07T06:57:27.343Z,65.98
2022-12-07T07:00:19.907Z,65.65
2022-12-07T07:03:07.844Z,65.85
2022-12-07T07:05:53.793Z,65.86
2022-12-07T07:08:40.326Z,65.85
2022-12-07T07:11:26.171Z,65.90
2022-12-07T07:14:12.249Z,65.92
2022-12-07T07:16:58.257Z,66.01
2022-12-07T07:19:44.000Z,65.94
2022-12-07T07:22:29.703Z,65.83
2022-12-07T07:25:15.625Z,66.00
2022-12-07T07:28:01.890Z,65.99
2022-12-07T07:30:48.207Z,65.61
2022-12-07T07:33:34.487Z,65.32
2022-12-07T07:36:20.197Z,65.76
2022-12-07T07:39:06.151Z,65.51
2022-12-07T07:41:52.123Z,65.40
2022-12-07T07:44:44.879Z,65.60
2022-12-07T07:47:30.985Z,65.31
2022-12-07T07:50:18.252Z,65.72
2022-12-07T07:53:04.188Z,65.75
2022-12-07T07:55:56.596Z,65.92
2022-12-07T07:58:42.450Z,65.47
2022-12-07T08:01:28.751Z,65.96
2022-12-07T08:04:14.627Z,65.57
2022-12-07T08:07:00.691Z,65.87
2022-12-07T08:09:46.526Z,65.62
2022-12-07T08:12:32.666Z,65.62
2022-12-07T08:15:18.570Z,66.07
2022-12-07T08:18:05.058Z,65.88
2022-12-07T08:20:50.868Z,65.78
2022-12-07T08:23:39.910Z,65.82
2022-12-07T08:26:26.175Z,65.21
2022-12-07T08:29:12.107Z,65.37
2022-12-07T08:31:59.021Z,65.63
2022-12-07T08:34:45.656Z,65.77
2022-12-07T08:37:32.586Z,65.50
2022-12-07T08:40:20.006Z,65.40
2022-12-07T08:43:05.718Z,65.75
2022-12-07T08:46:03.458Z,65.41
2022-12-07T08:49:11.853Z,65.83
2022-12-07T08:51:57.882Z,65.68
2022-12-07T08:54:43.852Z,65.60
2022-12-07T08:57:30.139Z,65.35
2022-12-07T09:00:17.959Z,65.13
2022-12-07T09:03:07.739Z,65.18
2022-12-07T09:05:54.800Z,64.89
2022-12-07T09:08:44.329Z,65.34
2022-12-07T09:11:30.498Z,65.38
2022-12-07T09:14:16.661Z,65.41
2022-12-07T09:17:10.137Z,64.87
2022-12-07T09:19:56.042Z,64.85
2022-12-07T09:22:41.696Z,64.76
2022-12-07T09:25:27.579Z,64.40
2022-12-07T09:28:13.700Z,64.08
2022-12-07T09:31:22.823Z,63.62
2022-12-07T09:34:08.404Z,63.39
2022-12-07T09:36:54.567Z,63.51
2022-12-07T09:39:44.755Z,63.59
2022-12-07T09:42:37.709Z,63.12
2022-12-07T09:45:48.348Z,63.36
2022-12-07T09:48:37.803Z,62.74
2022-12-07T09:51:25.764Z,62.62
2022-12-07T09:54:17.865Z,62.16
2022-12-07T09:57:06.218Z,61.98
2022-12-07T09:59:53.813Z,61.88
2022-12-07T10:02:46.288Z,62.10
2022-12-07T10:05:38.315Z,61.56
2022-12-07T10:08:27.203Z,61.00
2022-12-07T10:11:15.864Z,60.83
2022-12-07T10:14:13.867Z,59.99
2022-12-07T10:17:00.330Z,60.72
2022-12-07T10:19:46.181Z,60.88
2022-12-07T10:22:32.337Z,60.99
2022-12-07T10:25:23.634Z,60.86
2022-12-07T10:28:09.410Z,60.92
2022-12-07T10:31:00.144Z,60.64
2022-12-07T10:33:59.432Z,60.72
2022-12-07T10:36:45.482Z,60.65
2022-12-07T10:39:51.497Z,60.86
2022-12-07T10:42:37.215Z,61.11
2022-12-07T10:45:25.574Z,60.69
2022-12-07T10:48:17.424Z,60.81
2022-12-07T10:51:24.574Z,60.95
2022-12-07T10:54:38.766Z,61.38
2022-12-07T10:57:46.373Z,61.29
2022-12-07T11:00:58.725Z,61.41
2022-12-07T11:03:53.423Z,61.00
2022-12-07T11:07:03.123Z,60.45
2022-12-07T11:10:09.804Z,58.73
2022-12-07T11:13:02.635Z,59.74
2022-12-07T11:16:04.046Z,59.66
2022-12-07T11:19:28.634Z,59.91
2022-12-07T11:22:16.959Z,58.53
2022-12-07T11:25:17.995Z,59.69
2022-12-07T11:28:29.829Z,59.55
2022-12-07T11:31:48.902Z,59.12
2022-12-07T11:35:14.139Z,59.57
2022-12-07T11:38:03.198Z,59.19
2022-12-07T11:40:57.545Z,58.98
2022-12-07T11:44:09.198Z,59.85
2022-12-07T11:47:16.306Z,59.78
2022-12-07T11:50:29.466Z,59.92
2022-12-07T11:53:20.403Z,60.04
2022-12-07T11:56:15.338Z,59.73
2022-12-07T11:59:05.410Z,59.55
2022-12-07T12:02:34.005Z,59.56
2022-12-07T12:05:25.209Z,58.30
2022-12-07T12:15:22.858Z,57.64
2022-12-07T12:18:27.754Z,56.80
2022-12-07T12:21:21.571Z,57.67
2022-12-07T12:24:11.248Z,57.61
2022-12-07T12:27:11.406Z,57.68
2022-12-07T12:30:00.588Z,57.76
2022-12-07T12:32:46.707Z,57.55
2022-12-07T12:35:34.823Z,57.57
2022-12-07T12:38:49.467Z,57.75
2022-12-07T12:41:47.228Z,57.98
2022-12-07T12:44:33.289Z,57.69
2022-12-07T12:47:57.629Z,57.33
2022-12-07T12:50:43.649Z,57.81
2022-12-07T12:53:30.396Z,58.07
2022-12-07T12:56:31.297Z,57.94
2022-12-07T12:59:28.264Z,57.85
2022-12-07T13:02:30.237Z,58.06
2022-12-07T13:05:18.938Z,58.02
2022-12-07T13:08:23.179Z,57.87
2022-12-07T13:11:41.132Z,58.26
2022-12-07T13:14:53.616Z,57.89
2022-12-07T13:17:40.632Z,58.01
2022-12-07T13:20:45.888Z,58.14
2022-12-07T13:23:39.073Z,58.08
2022-12-07T13:26:31.403Z,58.01
2022-12-07T13:29:22.017Z,58.10
2022-12-07T13:32:27.885Z,57.94
2022-12-07T13:35:38.415Z,58.23
2022-12-07T13:38:36.054Z,57.92
2022-12-07T13:41:43.064Z,58.15
2022-12-07T13:44:29.507Z,57.86
2022-12-07T13:47:25.415Z,58.07
2022-12-07T13:50:26.706Z,58.16
2022-12-07T13:53:14.872Z,58.09
2022-12-07T13:56:02.021Z,58.04
2022-12-07T13:58:49.486Z,58.42
2022-12-07T14:01:35.367Z,58.05
2022-12-07T14:04:34.926Z,58.07
2022-12-07T14:07:23.913Z,58.17
2022-12-07T14:10:26.826Z,58.11
2022-12-07T14:13:36.792Z,58.06
2022-12-07T14:16:33.192Z,58.37
2022-12-07T14:19:49.442Z,58.36
2022-12-07T14:22:37.350Z,58.17
2022-12-07T14:25:25.535Z,58.55
2022-12-07T14:28:27.083Z,58.23
2022-12-07T14:31:23.682Z,58.29
2022-12-07T14:34:15.523Z,58.43
2022-12-07T14:37:01.813Z,58.58
2022-12-07T14:39:47.971Z,58.64
2022-12-07T14:42:34.544Z,58.53
2022-12-07T14:45:23.002Z,58.71
2022-12-07T14:54:26.545Z,58.38
2022-12-07T14:57:12.369Z,58.56
2022-12-07T14:59:58.437Z,58.55
2022-12-07T15:02:47.394Z,58.73
2022-12-07T15:05:34.827Z,58.52
2022-12-07T15:08:21.358Z,58.83
2022-12-07T15:11:07.600Z,58.82
2022-12-07T15:14:12.218Z,59.00
2022-12-07T15:17:24.673Z,58.70
2022-12-07T15:20:05.809Z,58.95
2022-12-07T15:22:51.980Z,59.02
2022-12-07T15:25:38.261Z,58.89
2022-12-07T15:28:24.276Z,59.00
2022-12-07T15:31:53.391Z,59.08
2022-12-07T15:34:34.725Z,59.48
2022-12-07T15:37:23.794Z,59.24
2022-12-07T15:40:10.081Z,59.05
2022-12-07T15:42:56.170Z,59.24
2022-12-07T15:45:41.933Z,59.36
2022-12-07T15:48:28.939Z,59.24
2022-12-07T15:51:16.500Z,59.31
2022-12-07T15:54:05.402Z,59.33
2022-12-07T15:56:51.596Z,59.50
2022-12-07T15:59:37.778Z,59.59
2022-12-07T16:02:24.771Z,59.61
2022-12-07T16:05:11.014Z,59.64
2022-12-07T16:07:57.219Z,59.67
2022-12-07T16:10:44.399Z,59.84
2022-12-07T16:13:30.767Z,59.97
2022-12-07T16:16:19.629Z,59.86
2022-12-07T16:19:05.944Z,59.87
2022-12-07T16:21:52.315Z,59.99
2022-12-07T16:24:38.243Z,60.29
2022-12-07T16:27:24.151Z,60.18
2022-12-07T16:30:10.547Z,60.12
2022-12-07T16:33:02.160Z,60.22
2022-12-07T16:35:48.504Z,60.24
2022-12-07T16:38:35.173Z,60.55
2022-12-07T16:41:21.167Z,60.37
2022-12-07T16:44:10.475Z,60.26
2022-12-07T16:46:56.779Z,60.36
2022-12-07T16:49:43.829Z,60.24
2022-12-07T16:52:30.230Z,60.46
2022-12-07T16:55:16.357Z,60.32
2022-12-07T16:58:02.368Z,60.27
2022-12-07T17:00:48.312Z,60.45
2022-12-07T17:03:34.664Z,59.99
2022-12-07T17:06:25.965Z,60.32
2022-12-07T17:09:17.789Z,60.30
2022-12-07T17:12:07.825Z,60.34
2022-12-07T17:15:12.132Z,60.07
2022-12-07T17:17:59.374Z,60.21
2022-12-07T17:20:45.137Z,59.93
2022-12-07T17:23:31.333Z,59.87
2022-12-07T17:26:19.843Z,59.71
2022-12-07T17:29:06.401Z,59.97
2022-12-07T17:31:52.323Z,59.86
2022-12-07T17:34:38.496Z,59.76
2022-12-07T17:37:24.132Z,59.75
2022-12-07T17:40:10.101Z,59.70
2022-12-07T17:42:55.980Z,59.97
2022-12-07T17:45:41.861Z,60.06
2022-12-07T17:48:27.962Z,60.15
2022-12-07T17:51:32.442Z,60.13
2022-12-07T17:54:19.116Z,60.22
2022-12-07T17:57:05.454Z,59.89
2022-12-07T17:59:52.238Z,60.15
2022-12-07T18:02:38.440Z,60.02
2022-12-07T18:05:24.220Z,59.82
2022-12-07T18:08:10.204Z,59.63
2022-12-07T18:11:00.307Z,59.52
2022-12-07T18:13:46.239Z,59.55
2022-12-07T18:16:34.591Z,59.60
2022-12-07T18:19:20.415Z,59.56
2022-12-07T18:22:06.686Z,59.51
2022-12-07T18:24:52.779Z,59.30
2022-12-07T18:27:38.522Z,59.45
2022-12-07T18:30:49.557Z,59.64
2022-12-07T18:33:30.534Z,59.62
2022-12-07T18:36:17.460Z,59.79
2022-12-07T18:39:07.300Z,59.71
2022-12-07T18:41:53.485Z,59.86
2022-12-07T18:44:39.196Z,59.59
2022-12-07T18:47:24.934Z,59.41
2022-12-07T18:50:10.890Z,59.90
2022-12-07T18:53:01.432Z,59.73
2022-12-07T18:55:47.089Z,59.83
2022-12-07T18:58:33.126Z,59.62
2022-12-07T19:01:19.662Z,59.49
2022-12-07T19:04:05.779Z,59.82
2022-12-07T19:06:51.877Z,59.78
2022-12-07T19:09:38.311Z,59.73
2022-12-07T19:12:24.029Z,59.66
2022-12-07T19:15:12.290Z,59.43
2022-12-07T19:17:58.327Z,59.57
2022-12-07T19:20:44.312Z,59.74
2022-12-07T19:23:30.412Z,59.41
2022-12-07T19:26:16.407Z,59.42
2022-12-07T19:29:02.494Z,59.51
2022-12-07T19:31:49.171Z,59.26
2022-12-07T19:34:35.877Z,59.74
2022-12-07T19:37:21.641Z,59.60
2022-12-07T19:40:07.874Z,59.57
2022-12-07T19:42:53.695Z,59.47
2022-12-07T19:45:39.715Z,59.48
2022-12-07T19:48:25.511Z,59.34
2022-12-07T19:51:11.315Z,59.79
2022-12-07T19:54:01.588Z,59.17
2022-12-07T19:56:48.518Z,59.32
2022-12-07T19:59:34.715Z,59.79
2022-12-07T20:02:20.650Z,59.30
2022-12-07T20:05:06.888Z,59.63
2022-12-07T20:07:53.076Z,59.79
2022-12-07T20:10:40.031Z,59.86
2022-12-07T20:13:28.941Z,59.34
2022-12-07T20:16:19.777Z,59.40
2022-12-07T20:19:07.685Z,59.89
2022-12-07T20:21:53.547Z,59.51
2022-12-07T20:24:39.869Z,59.38
2022-12-07T20:27:26.005Z,59.34
2022-12-07T20:30:12.064Z,59.47
2022-12-07T20:32:58.616Z,59.55
2022-12-07T20:35:44.492Z,59.39
2022-12-07T20:38:32.370Z,59.41
2022-12-07T20:41:37.448Z,59.48
2022-12-07T20:44:23.788Z,59.64
2022-12-07T20:47:09.821Z,59.41
2022-12-07T20:49:55.649Z,59.77
2022-12-07T20:52:41.419Z,59.41
2022-12-07T20:55:27.327Z,59.81
2022-12-07T20:58:13.448Z,59.43
2022-12-07T21:01:03.591Z,59.79
2022-12-07T21:03:49.760Z,59.88
2022-12-07T21:06:35.652Z,59.90
2022-12-07T21:09:26.894Z,59.72
2022-12-07T21:12:14.281Z,59.81
2022-12-07T21:15:00.516Z,59.60
2022-12-07T21:17:46.419Z,59.71
2022-12-07T21:20:32.941Z,59.95
2022-12-07T21:23:18.637Z,59.68
2022-12-07T21:26:13.975Z,59.92
2022-12-07T21:29:00.017Z,59.71
2022-12-07T21:31:46.100Z,60.01
2022-12-07T21:34:32.263Z,59.86
2022-12-07T21:37:18.519Z,59.98
2022-12-07T21:40:10.982Z,59.89
2022-12-07T21:43:00.022Z,60.09
2022-12-07T21:45:53.535Z,60.08
2022-12-07T21:48:40.059Z,59.70
2022-12-07T21:51:27.816Z,60.02
2022-12-07T21:54:13.733Z,60.05
2022-12-07T21:56:59.708Z,60.09
2022-12-07T21:59:45.852Z,59.58
2022-12-07T22:02:31.881Z,60.10
2022-12-07T22:05:17.907Z,59.77
2022-12-07T22:08:04.906Z,60.06
2022-12-07T22:10:50.796Z,59.80
2022-12-07T22:13:56.705Z,59.96
2022-12-07T22:16:42.840Z,60.23
2022-12-07T22:19:29.142Z,59.79
2022-12-07T22:22:16.213Z,59.97
2022-12-07T22:25:02.583Z,60.06
2022-12-07T22:27:48.627Z,60.07
2022-12-07T22:30:34.864Z,59.83
2022-12-07T22:33:20.924Z,60.45
2022-12-07T22:36:07.410Z,60.05
2022-12-07T22:38:53.476Z,60.07
2022-12-07T22:41:39.366Z,60.40
2022-12-07T22:44:25.089Z,60.23
2022-12-07T22:47:13.848Z,60.41
2022-12-07T22:50:00.516Z,60.18
2022-12-07T22:52:46.502Z,60.49
2022-12-07T22:55:32.273Z,60.24
2022-12-07T22:58:18.666Z,60.34
2022-12-07T23:01:14.837Z,60.57
2022-12-07T23:04:00.693Z,60.51
2022-12-07T23:06:46.579Z,60.41
2022-12-07T23:09:32.678Z,60.51
2022-12-07T23:12:38.066Z,60.26
2022-12-07T23:15:24.174Z,60.45
2022-12-07T23:18:09.928Z,60.74
2022-12-07T23:20:57.054Z,60.42
2022-12-07T23:23:43.070Z,60.75
2022-12-07T23:26:28.897Z,60.28
2022-12-07T23:29:17.850Z,60.36
2022-12-07T23:32:04.450Z,60.53
2022-12-07T23:34:50.508Z,60.89
2022-12-07T23:37:36.391Z,60.97
2022-12-07T23:40:22.151Z,60.83
2022-12-07T23:43:07.966Z,60.87
2022-12-07T23:45:53.607Z,61.18
2022-12-07T23:48:40.118Z,60.99
2022-12-07T23:51:26.931Z,60.90
2022-12-07T23:54:13.658Z,60.69
2022-12-07T23:56:59.355Z,60.95
2022-12-07T23:59:45.252Z,61.11
